Allakaket, Alaska
Current Conditions -  °F | °C
As of 8:53 AM on Monday 24 Nov 2014 (Local Time) from PABT Reporting Station
Light Snow Light Snow  
Wind Chill:   Ceiling: 4800
Heat Index:   Visibility: 9mi
Dew Point:   Wind: 0mph
Humidity: 73%   Direction: NA
Pressure: 29.76"   Gusts: NA
Location:  66.57°N, 152.65°W
Report Text: PABT 241753Z 00000KT 9SM -SN OVC048 M13/M17 A2976 RMK AO2 SLP101 PCPN VRY LGT 60000 4/004 T11331172 11133 21150 53003
Loading
Personal Weather Stations






























Interactive Weather Map New forecast layout! Learn more

10-Day Weather Forecast

Advertisements
Track Severe Weather on mobile